Latest Weather Observations for Mount Hotham

IDV60801

Issued at 4:32 am EST Tuesday 30 May 2017 (issued every 30 minutes, with the page automatically refreshed every 10 minutes)

About weather observations | Map of weather stations | Latest weather observations for VIC | Other Formats
Station Details ID: 083085 Name: MOUNT HOTHAM Lat: -36.98 Lon: 147.13 Height: 1849.0 m
Data from the previous 72 hours. | See also: Recent months at Mount Hotham
Date/Time
EST
Temp
°C
App
Temp
°C
Dew
Point
°C
Rel
Hum
%
Delta-T
°C
Wind Press
QNH
hPa
Press
MSL
hPa
Rain since
9am
mm
Dir  Spd
km/h
Gust
km/h
Spd
kts
Gust
kts
30/04:30am -2.3 - - - - CALM 0 0 0 0 - - 0.0
30/04:00am -2.3 - - - - CALM 0 0 0 0 - - 0.0
30/03:30am -2.2 - - - - CALM 0 0 0 0 - - 0.0
30/03:00am -2.3 - - - - CALM 0 0 0 0 - - 0.0
30/02:30am -2.4 - - - - CALM 0 0 0 0 - - 0.0
30/02:00am -2.4 - - - - CALM 0 0 0 0 - - 0.0
30/01:30am -2.4 - - - - CALM 0 0 0 0 - - 0.0
30/01:00am -2.4 - - - - CALM 0 0 0 0 - - 0.0
30/12:30am -2.3 - - - - CALM 0 0 0 0 - - 0.0
30/12:00am -2.4 - - - - CALM 0 0 0 0 - - 0.0
 
Date/Time
EST
Temp
°C
App
Temp
°C
Dew
Point
°C
Rel
Hum
%
Delta-T
°C
Wind Press
QNH
hPa
Press
MSL
hPa
Rain since
9am
mm
Dir  Spd
km/h
Gust
km/h
Spd
kts
Gust
kts
29/11:30pm -2.8 - - - - CALM 0 0 0 0 - - 0.0
29/11:00pm -3.1 - - - - CALM 0 0 0 0 - - 0.0
29/10:30pm -3.3 - - - - CALM 0 0 0 0 - - 0.0
29/10:00pm -3.4 - - - - CALM 0 0 0 0 - - 0.0
29/09:30pm -3.5 - - - - CALM 0 0 0 0 - - 0.0
29/09:00pm -3.6 - - - - CALM 0 0 0 0 - - 0.0
29/08:30pm -3.5 - - - - CALM 0 0 0 0 - - 0.0
29/08:00pm -3.4 - - - - CALM 0 0 0 0 - - 0.0
29/07:30pm -3.4 - - - - CALM 0 0 0 0 - - 0.0
29/07:00pm -3.4 - - - - CALM 0 0 0 0 - - 0.0
29/06:30pm -3.4 - - - - CALM 0 2 0 1 - - 0.0
29/06:00pm -3.2 - - - - CALM 0 0 0 0 - - 0.0
29/05:30pm -3.1 - - - - CALM 0 0 0 0 - - 0.0
29/05:00pm -3.0 - - - - CALM 0 0 0 0 - - 0.0
29/04:30pm -3.1 - - - - CALM 0 0 0 0 - - 0.0
29/04:00pm -3.0 - - - - CALM 0 2 0 1 - - 0.0
29/03:30pm -2.8 - - - - CALM 0 0 0 0 - - 0.0
29/03:00pm -2.8 - - - - CALM 0 0 0 0 - - 0.0
29/02:30pm -2.7 - - - - CALM 0 0 0 0 - - 0.0
29/02:00pm -2.6 - - - - CALM 0 0 0 0 - - 0.0
29/01:30pm -2.7 - - - - CALM 0 0 0 0 - - 0.0
29/01:00pm -2.5 - - - - CALM 0 0 0 0 - - 0.0
29/12:30pm -2.5 - - - - CALM 0 0 0 0 - - 0.0
29/12:00pm -3.3 - - - - CALM 0 0 0 0 - - 0.0
29/11:30am -3.3 - - - - CALM 0 0 0 0 - - 0.0
29/11:00am -3.7 - - - - CALM 0 0 0 0 - - 0.0
29/10:30am -4.0 - - - - CALM 0 0 0 0 - - 0.0
29/10:00am -4.1 - - - - N 4 9 2 5 - - 0.0
29/09:30am -4.4 - - - - N 9 15 5 8 - - 0.0
29/09:00am -4.5 - - - - N 13 17 7 9 - - 1.8
29/08:30am -4.7 - - - - N 15 20 8 11 - - 1.8
29/08:00am -4.7 - - - - N 11 17 6 9 - - 1.8
29/07:30am -4.7 - - - - N 11 17 6 9 - - 1.8
29/07:00am -4.7 - - - - N 11 15 6 8 - - 1.8
29/06:30am -4.7 - - - - N 9 13 5 7 - - 1.8
29/06:00am -4.7 - - - - N 15 19 8 10 - - 1.8
29/05:30am -4.6 - - - - N 13 17 7 9 - - 1.8
29/05:00am -4.7 - - - - N 15 19 8 10 - - 1.8
29/04:30am -4.7 - - - - N 13 15 7 8 - - 1.8
29/04:00am -4.7 - - - - N 15 20 8 11 - - 1.8
29/03:30am -4.7 - - - - N 13 17 7 9 - - 1.8
29/03:00am -4.6 - - - - N 11 15 6 8 - - 1.8
29/02:30am -4.5 - - - - N 15 19 8 10 - - 1.8
29/02:00am -4.4 - - - - N 15 17 8 9 - - 1.8
29/01:30am -4.4 - - - - N 17 20 9 11 - - 1.8
29/01:00am -4.4 - - - - N 19 24 10 13 - - 1.8
29/12:30am -4.2 - - - - N 17 20 9 11 - - 1.8
29/12:00am -4.2 - - - - N 15 19 8 10 - - 1.8
 
Date/Time
EST
Temp
°C
App
Temp
°C
Dew
Point
°C
Rel
Hum
%
Delta-T
°C
Wind Press
QNH
hPa
Press
MSL
hPa
Rain since
9am
mm
Dir  Spd
km/h
Gust
km/h
Spd
kts
Gust
kts
28/11:30pm -4.0 - - - - N 19 24 10 13 - - 1.8
28/11:00pm -3.8 - - - - N 20 30 11 16 - - 1.8
28/10:30pm -3.5 - - - - N 20 24 11 13 - - 1.8
28/10:00pm -3.4 - - - - N 19 24 10 13 - - 1.8
28/09:30pm -3.3 - - - - N 19 28 10 15 - - 1.8
28/09:00pm -3.3 - - - - N 22 30 12 16 - - 1.8
28/08:30pm -3.3 - - - - N 26 35 14 19 - - 1.8
28/08:00pm -3.2 - - - - N 26 44 14 24 - - 1.8
28/07:30pm -3.2 - - - - N 28 37 15 20 - - 1.8
28/07:00pm -3.0 - - - - N 24 37 13 20 - - 1.8
28/06:30pm -3.0 - - - - N 26 33 14 18 - - 1.8
28/06:00pm -2.8 - - - - N 20 30 11 16 - - 1.8
28/05:30pm -2.4 - - - - N 30 39 16 21 - - 1.8
28/05:00pm -2.1 - - - - N 26 37 14 20 - - 1.8
28/04:30pm -2.4 - - - - N 22 32 12 17 - - 1.8
28/04:00pm -2.1 - - - - N 24 32 13 17 - - 1.8
28/03:30pm -1.9 - - - - N 24 39 13 21 - - 1.8
28/03:00pm -1.8 - - - - N 30 41 16 22 - - 1.8
28/02:30pm -2.0 - - - - N 28 35 15 19 - - 1.8
28/02:00pm -2.0 - - - - N 30 43 16 23 - - 1.8
28/01:30pm -1.8 - - - - N 30 46 16 25 - - 1.8
28/01:26pm -1.6 - - - - N 28 46 15 25 - - 1.8
28/01:00pm -1.1 - - - - N 28 37 15 20 - - 1.8
28/12:30pm -1.0 - - - - N 28 41 15 22 - - 1.6
28/12:00pm -0.7 - - - - N 28 41 15 22 - - 1.6
28/11:51am -0.6 - - - - N 33 52 18 28 - - 1.6
28/11:30am -0.5 - - - - N 35 52 19 28 - - 1.2
28/11:00am -0.5 - - - - N 33 46 18 25 - - 0.8
28/10:30am -0.7 - - - - N 30 48 16 26 - - 0.6
28/10:02am -0.7 - - - - N 35 54 19 29 - - 0.4
28/10:00am -0.6 - - - - N 37 54 20 29 - - 0.4
28/09:30am -0.3 - - - - N 35 46 19 25 - - 0.0
28/09:00am -0.3 - - - - N 46 65 25 35 - - 7.6
28/08:41am -0.3 - - - - N 43 61 23 33 - - 7.4
28/08:30am -0.3 - - - - N 43 57 23 31 - - 7.4
28/08:09am -0.4 - - - - N 41 59 22 32 - - 7.2
28/08:00am -0.4 - - - - N 46 61 25 33 - - 7.2
28/07:31am -0.6 - - - - N 48 74 26 40 - - 7.2
28/07:30am -0.7 - - - - N 46 61 25 33 - - 7.2
28/07:13am -0.2 - - - - N 50 89 27 48 - - 7.2
28/07:00am -0.1 - - - - NNW 41 69 22 37 - - 7.0
28/06:52am -0.1 - - - - NNW 37 67 20 36 - - 7.0
28/06:49am 0.0 - - - - N 39 67 21 36 - - 7.0
28/06:30am -0.1 - - - - N 48 67 26 36 - - 6.6
28/06:00am 0.0 - - - - N 54 78 29 42 - - 6.6
28/05:54am 0.1 - - - - N 52 78 28 42 - - 6.6
28/05:53am 0.0 - - - - N 52 78 28 42 - - 6.6
28/05:30am 0.2 - - - - NNW 41 70 22 38 - - 6.6
28/05:05am 0.1 - - - - NNW 39 63 21 34 - - 6.6
28/05:00am 0.0 - - - - NNW 39 54 21 29 - - 6.6
28/04:39am -0.1 - - - - NNW 50 69 27 37 - - 6.6
28/04:30am -0.2 - - - - NNW 57 100 31 54 - - 6.6
28/04:29am 0.0 - - - - N 59 100 32 54 - - 6.6
28/04:00am 2.0 - - - - N 63 89 34 48 - - 5.4
28/03:30am 2.0 - - - - N 69 91 37 49 - - 5.0
28/03:00am 1.8 - - - - N 72 98 39 53 - - 4.8
28/02:30am 1.7 - - - - N 69 96 37 52 - - 3.0
28/02:07am 1.3 - - - - N 69 87 37 47 - - 2.8
28/02:00am 0.9 - - - - N 69 85 37 46 - - 2.8
28/01:30am 1.7 - - - - N 69 89 37 48 - - 2.2
28/01:00am 1.8 - - - - N 63 91 34 49 - - 2.2
28/12:30am 1.7 - - - - N 69 96 37 52 - - 2.0
28/12:00am 1.6 - - - - N 69 95 37 51 - - 2.0
 
Date/Time
EST
Temp
°C
App
Temp
°C
Dew
Point
°C
Rel
Hum
%
Delta-T
°C
Wind Press
QNH
hPa
Press
MSL
hPa
Rain since
9am
mm
Dir  Spd
km/h
Gust
km/h
Spd
kts
Gust
kts
27/11:30pm 1.6 - - - - N 72 93 39 50 - - 1.8
27/11:00pm 1.7 - - - - N 63 91 34 49 - - 1.6
27/10:30pm 1.8 - - - - N 67 98 36 53 - - 1.4
27/10:00pm 1.4 - - - - N 69 98 37 53 - - 1.2
27/09:58pm 1.5 - - - - N 67 98 36 53 - - 1.2
27/09:30pm 1.4 - - - - N 61 80 33 43 - - 1.0
27/09:00pm 1.1 - - - - N 52 78 28 42 - - 0.8
27/08:39pm 1.1 - - - - N 54 76 29 41 - - 0.8
27/08:30pm 1.1 - - - - N 57 72 31 39 - - 0.8
27/08:00pm 1.0 - - - - N 50 69 27 37 - - 0.6
27/07:31pm 1.0 - - - - N 46 65 25 35 - - 0.6
27/07:30pm 1.0 - - - - N 46 57 25 31 - - 0.6
27/07:00pm 0.8 - - - - N 46 56 25 30 - - 0.6
27/06:30pm 0.9 - - - - N 46 59 25 32 - - 0.6
27/06:00pm 1.1 - - - - N 44 54 24 29 - - 0.6
27/05:30pm 1.1 - - - - N 43 57 23 31 - - 0.4
27/05:00pm 1.2 - - - - N 41 52 22 28 - - 0.4
27/04:30pm 1.3 - - - - N 43 54 23 29 - - 0.4
27/04:00pm 1.6 - - - - N 39 57 21 31 - - 0.4
27/03:58pm 1.7 - - - - N 39 57 21 31 - - 0.4
27/03:30pm 1.6 - - - - N 44 57 24 31 - - 0.4
27/03:00pm 1.9 - - - - N 46 63 25 34 - - 0.4
27/02:41pm 1.8 - - - - N 43 63 23 34 - - 0.4
27/02:30pm 1.9 - - - - N 43 57 23 31 - - 0.4
27/02:13pm 1.9 - - - - N 41 59 22 32 - - 0.4
27/02:00pm 1.8 - - - - N 39 52 21 28 - - 0.4
27/01:32pm 2.0 - - - - N 43 63 23 34 - - 0.4
27/01:30pm 2.1 - - - - N 43 52 23 28 - - 0.4
27/01:00pm 1.7 - - - - N 43 63 23 34 - - 0.4
27/12:46pm 1.6 - - - - N 43 61 23 33 - - 0.4
27/12:30pm 1.8 - - - - N 44 61 24 33 - - 0.4
27/12:04pm 1.7 - - - - N 44 65 24 35 - - 0.4
27/12:00pm 1.8 - - - - N 44 57 24 31 - - 0.4
27/11:30am 1.5 - - - - N 46 59 25 32 - - 0.4
27/11:00am 1.7 - - - - N 44 63 24 34 - - 0.4
27/10:51am 1.8 - - - - N 44 63 24 34 - - 0.4
27/10:30am 1.8 - - - - N 44 61 24 33 - - 0.2
27/10:00am 1.8 - - - - N 41 67 22 36 - - 0.2
27/09:40am 1.8 - - - - NNW 37 56 20 30 - - 0.0
27/09:34am 1.9 - - - - N 41 61 22 33 - - 0.0
27/09:30am 1.9 - - - - N 43 61 23 33 - - 0.0
27/09:28am 1.7 - - - - N 43 61 23 33 - - 0.0
27/09:00am 1.9 - - - - N 41 54 22 29 - - 2.8
27/08:30am 1.7 - - - - N 46 61 25 33 - - 2.6
27/08:23am 1.7 - - - - N 43 61 23 33 - - 2.6
27/08:00am 1.9 - - - - N 44 57 24 31 - - 2.4
27/07:30am 1.8 - - - - N 43 61 23 33 - - 2.4
27/07:23am 1.9 - - - - N 43 61 23 33 - - 2.2
27/07:00am 2.0 - - - - N 43 59 23 32 - - 2.0
27/06:49am 2.1 - - - - N 43 61 23 33 - - 2.0
27/06:30am 2.0 - - - - N 39 48 21 26 - - 1.8
27/06:01am 1.8 - - - - N 43 61 23 33 - - 1.8
27/06:00am 1.8 - - - - N 41 56 22 30 - - 1.8
27/05:35am 1.9 - - - - N 41 59 22 32 - - 1.6
27/05:30am 1.9 - - - - N 41 57 22 31 - - 1.6
27/05:10am 2.1 - - - - NNW 39 57 21 31 - - 1.6
27/05:00am 2.1 - - - - N 41 52 22 28 - - 1.4
27/04:42am 2.1 - - - - N 41 59 22 32 - - 1.2

Other Formats:

Comma delimited format used in spreadsheet applications
http://www.bom.gov.au/fwo/IDV60801/IDV60801.94906.axf

JavaScript Object Notation format (JSON) in row-major order
http://www.bom.gov.au/fwo/IDV60801/IDV60801.94906.json